Terminal Aerodrome Forecast
Issued by NWS Midland/Odessa, TX

Home | Current Version | Previous Version | Text Only | Print | Product List | Glossary On
Versions: 1 2 3 4 5 6 7 8 9 10 11 12 13 14 15 16 17 18
000
FTUS44 KMAF 272300
TAFMAF
TAF
KMAF 272328Z 2800/2824 02008KT P6SM BKN100
     FM281200 23006KT P6SM BKN020
     FM281800 22015KT P6SM SKC=

USA.gov is the U.S. government's official web portal to all federal, state and local government web resources and services.